Time;durP1;ratioP1;P1;durP2;ratioP2;P2;SDS_P1;SDS_P2;PMS_P1;PMS_P2;Temp;Humidity;BMP_temperature;BMP_pressure;BME280_temperature;BME280_humidity;BME280_pressure;Samples;Min_cycle;Max_cycle;Signal;HPM_P1;HPM_P2
2022/12/13 00:01:13;;;;;;;10.98;3.83;;;;;;;-2.84;86.73;101420.44;5093178;27;97911;-31
2022/12/13 00:03:39;;;;;;;3.78;2.05;;;;;;;-2.87;86.62;101418.69;5074284;27;100747;-31
2022/12/13 00:06:08;;;;;;;2.83;2.63;;;;;;;-2.90;86.43;101420.44;5093347;27;96565;-31
2022/12/13 00:08:33;;;;;;;5.75;3.67;;;;;;;-2.89;86.71;101422.19;5074462;27;96747;-31
2022/12/13 00:11:00;;;;;;;3.80;2.28;;;;;;;-2.92;86.88;101419.56;5092885;27;97955;-31
2022/12/13 00:13:26;;;;;;;4.07;1.58;;;;;;;-2.94;86.86;101408.94;5074659;27;100921;-31
2022/12/13 00:15:56;;;;;;;9.13;3.03;;;;;;;-2.95;86.79;101411.59;5093033;27;96480;-31
2022/12/13 00:18:22;;;;;;;4.65;3.35;;;;;;;-2.91;86.51;101413.34;5074253;27;96814;-32
2022/12/13 00:20:47;;;;;;;3.50;3.17;;;;;;;-2.93;86.55;101410.72;5092175;27;97527;-32
2022/12/13 00:23:12;;;;;;;2.90;1.50;;;;;;;-2.94;86.60;101408.94;5091851;27;107263;-30
2022/12/13 00:25:38;;;;;;;2.90;2.45;;;;;;;-2.96;86.64;101402.75;5093230;27;96466;-31
2022/12/13 00:28:03;;;;;;;4.65;3.88;;;;;;;-3.02;86.81;101400.09;5092695;27;100850;-31
2022/12/13 00:30:30;;;;;;;2.55;1.92;;;;;;;-3.06;86.74;101404.47;5092419;27;108243;-30
2022/12/13 00:32:56;;;;;;;2.83;2.15;;;;;;;-3.07;86.88;101396.56;5092590;27;97836;-31
2022/12/13 00:35:21;;;;;;;1.08;0.95;;;;;;;-3.07;87.00;101409.78;5095460;27;96996;-32
2022/12/13 00:37:46;;;;;;;9.65;1.55;;;;;;;-3.12;86.98;101406.22;5096860;27;96737;-31
2022/12/13 00:40:12;;;;;;;7.18;3.38;;;;;;;-3.14;86.83;101402.72;5096173;27;102369;-31
2022/12/13 00:42:37;;;;;;;3.45;2.08;;;;;;;-3.09;87.42;101407.13;5096187;27;97894;-32
2022/12/13 00:45:03;;;;;;;3.70;2.25;;;;;;;-3.13;86.87;101399.16;5095848;27;96554;-31
2022/12/13 00:47:28;;;;;;;1.63;1.42;;;;;;;-3.12;86.61;101388.59;5096176;27;96848;-30
2022/12/13 00:49:54;;;;;;;3.60;2.38;;;;;;;-3.11;86.97;101390.34;5095601;27;98750;-31
2022/12/13 00:52:19;;;;;;;3.83;2.80;;;;;;;-3.12;86.60;101378.00;5095773;27;98787;-31
2022/12/13 00:54:44;;;;;;;5.97;2.88;;;;;;;-3.14;86.85;101386.81;5096494;27;96459;-31
2022/12/13 00:57:09;;;;;;;4.57;2.20;;;;;;;-3.14;87.00;101382.38;5095841;27;98003;-31
2022/12/13 00:59:35;;;;;;;5.28;4.15;;;;;;;-3.14;86.87;101374.44;5095825;27;98007;-31
2022/12/13 01:02:00;;;;;;;3.17;1.92;;;;;;;-3.10;86.82;101377.97;5095760;27;107903;-31
2022/12/13 01:04:25;;;;;;;3.55;2.75;;;;;;;-3.09;86.74;101375.34;5095600;27;99691;-31
2022/12/13 01:06:51;;;;;;;5.00;2.45;;;;;;;-3.11;86.40;101381.50;5096046;27;96794;-31
2022/12/13 01:09:25;;;;;;;4.90;3.08;;;;;;;-3.13;86.74;101377.97;5094942;27;99737;-31
2022/12/13 01:11:58;;;;;;;5.75;3.13;;;;;;;-3.12;86.64;101374.44;5076947;27;101229;-31
2022/12/13 01:14:24;;;;;;;1.65;1.38;;;;;;;-3.14;86.91;101371.78;5077186;27;96587;-31
2022/12/13 01:16:50;;;;;;;7.13;2.45;;;;;;;-3.16;86.85;101370.03;5095631;27;96748;-30
2022/12/13 01:19:15;;;;;;;2.75;2.13;;;;;;;-3.17;86.60;101370.88;5094971;27;97959;-31
2022/12/13 01:21:41;;;;;;;2.28;1.33;;;;;;;-3.16;86.79;101376.19;5095716;27;97898;-31
2022/12/13 01:24:06;;;;;;;2.80;2.13;;;;;;;-3.17;86.80;101374.44;5095032;27;96823;-30
2022/12/13 01:26:32;;;;;;;4.07;2.42;;;;;;;-3.16;86.68;101372.66;5095781;27;96779;-31
2022/12/13 01:28:58;;;;;;;0.88;0.85;;;;;;;-3.18;86.41;101370.00;5076735;27;100629;-31
2022/12/13 01:31:23;;;;;;;2.17;1.15;;;;;;;-3.19;86.50;101376.19;5076592;27;100794;-32
2022/12/13 01:33:49;;;;;;;9.15;3.92;;;;;;;-3.23;86.80;101371.75;5095048;27;96561;-31
2022/12/13 01:36:18;;;;;;;3.67;1.90;;;;;;;-3.25;87.17;101368.22;5095392;27;96709;-31
2022/12/13 01:38:43;;;;;;;2.78;2.20;;;;;;;-3.22;86.79;101370.88;5076648;27;100952;-33
2022/12/13 01:41:15;;;;;;;4.20;2.78;;;;;;;-3.22;86.82;101370.88;5095209;27;97772;-31
2022/12/13 01:43:40;;;;;;;3.35;2.33;;;;;;;-3.19;87.03;101378.84;5095521;27;96532;-31
2022/12/13 01:46:05;;;;;;;2.10;1.75;;;;;;;-3.21;86.94;101367.34;5094675;27;96836;-31
2022/12/13 01:48:35;;;;;;;5.75;2.25;;;;;;;-3.23;86.95;101370.00;5094738;27;104991;-32
2022/12/13 01:51:04;;;;;;;2.72;2.25;;;;;;;-3.24;86.96;101359.41;5076772;27;101266;-31
2022/12/13 01:53:33;;;;;;;1.70;1.50;;;;;;;-3.24;87.08;101359.41;5076527;27;96781;-31
2022/12/13 01:56:11;;;;;;;2.80;1.92;;;;;;;-3.28;87.19;101371.75;5076520;27;96697;-31
2022/12/13 01:58:38;;;;;;;1.48;1.38;;;;;;;-3.26;87.25;101380.59;5075737;27;100755;-33
2022/12/13 02:01:03;;;;;;;13.02;3.55;;;;;;;-3.24;87.33;101377.94;5076099;27;100865;-32
2022/12/13 02:03:29;;;;;;;2.15;2.00;;;;;;;-3.23;87.46;101370.00;5094774;27;96457;-32
2022/12/13 02:06:06;;;;;;;7.93;1.70;;;;;;;-3.25;87.43;101361.16;5095066;27;96773;-32
2022/12/13 02:08:33;;;;;;;1.23;0.70;;;;;;;-3.22;87.15;101363.84;5076139;27;101904;-31
2022/12/13 02:11:00;;;;;;;1.40;1.20;;;;;;;-3.24;86.83;101356.75;5075806;27;101370;-30
2022/12/13 02:13:25;;;;;;;1.35;1.23;;;;;;;-3.26;86.92;101367.34;5076121;27;96770;-32
2022/12/13 02:16:20;;;;;;;2.97;1.85;;;;;;;-3.25;87.11;101368.22;5094883;27;96781;-30
2022/12/13 02:18:45;;;;;;;1.70;1.60;;;;;;;-3.25;87.21;101355.84;5063415;27;99972;-30
2022/12/13 02:21:26;;;;;;;5.80;1.95;;;;;;;-3.24;87.16;101365.59;5094912;27;97283;-31
2022/12/13 02:24:25;;;;;;;5.88;2.95;;;;;;;-3.28;86.83;101350.56;5074535;27;97055;-31
2022/12/13 02:27:21;;;;;;;0.73;0.73;;;;;;;-3.25;87.17;101360.28;5050957;27;98144;-30
2022/12/13 02:30:18;;;;;;;1.42;1.30;;;;;;;-3.26;86.91;101342.63;5094207;27;97429;-31
2022/12/13 02:33:07;;;;;;;2.20;1.65;;;;;;;-3.28;87.33;101342.59;5094391;27;99505;-31
2022/12/13 02:35:42;;;;;;;1.23;1.13;;;;;;;-3.27;87.16;101349.66;5075729;27;96602;-31
2022/12/13 02:38:16;;;;;;;1.70;1.58;;;;;;;-3.24;86.98;101346.16;5075555;27;96744;-31
2022/12/13 02:40:46;;;;;;;3.03;2.83;;;;;;;-3.25;87.08;101344.38;5075757;27;100812;-30
2022/12/13 02:43:21;;;;;;;19.17;3.33;;;;;;;-3.28;87.03;101341.72;5075964;27;100834;-32
2022/12/13 02:45:54;;;;;;;2.38;2.03;;;;;;;-3.28;87.17;101345.25;5075797;27;96576;-31
2022/12/13 02:48:26;;;;;;;2.90;1.98;;;;;;;-3.26;87.21;101348.78;5075717;27;96719;-30
2022/12/13 02:50:53;;;;;;;1.77;1.67;;;;;;;-3.30;87.11;101340.84;5074755;27;99016;-31
2022/12/13 02:53:20;;;;;;;2.67;1.55;;;;;;;-3.27;87.00;101346.13;5075479;27;100754;-31
2022/12/13 02:55:46;;;;;;;5.25;2.25;;;;;;;-3.31;87.06;101332.00;5093834;27;96656;-31
2022/12/13 02:58:14;;;;;;;3.90;3.03;;;;;;;-3.28;87.17;101336.44;5074661;27;96635;-31
2022/12/13 03:01:06;;;;;;;2.25;2.05;;;;;;;-3.26;87.26;101350.56;5075318;27;101180;-31
2022/12/13 03:03:46;;;;;;;1.10;1.00;;;;;;;-3.27;86.75;101348.78;5054419;27;96791;-31
2022/12/13 03:06:42;;;;;;;7.82;4.13;;;;;;;-3.28;86.81;101339.09;5093996;27;96651;-31
2022/12/13 03:09:24;;;;;;;3.63;1.08;;;;;;;-3.31;86.76;101347.00;5094497;27;96889;-30
2022/12/13 03:15:08;;;;;;;3.88;2.50;;;;;;;-3.36;87.03;101347.00;5092390;27;97042;-31
2022/12/13 03:17:41;;;;;;;5.28;3.20;;;;;;;-3.36;86.75;101344.34;5074796;27;96913;-31
2022/12/13 03:20:08;;;;;;;0.60;0.47;;;;;;;-3.42;86.77;101346.97;5075055;27;96835;-32
2022/12/13 03:22:33;;;;;;;3.70;2.50;;;;;;;-3.44;86.55;101349.59;5074923;27;100657;-31
2022/12/13 03:24:59;;;;;;;4.13;3.28;;;;;;;-3.44;86.88;101354.03;5074045;27;102622;-31
2022/12/13 03:27:24;;;;;;;1.15;0.88;;;;;;;-3.47;86.80;101346.94;5093843;27;96623;-31
2022/12/13 03:29:50;;;;;;;1.77;1.65;;;;;;;-3.47;86.69;101341.66;5093381;27;96798;-32
2022/12/13 03:32:15;;;;;;;1.65;1.55;;;;;;;-3.48;86.52;101345.19;5093529;27;97950;-31
2022/12/13 03:34:40;;;;;;;3.10;1.15;;;;;;;-3.47;86.55;101349.59;5093716;27;97771;-31
2022/12/13 03:37:06;;;;;;;2.47;2.22;;;;;;;-3.50;86.85;101336.34;5093764;27;96472;-31
2022/12/13 03:39:31;;;;;;;1.83;1.48;;;;;;;-3.46;86.72;101340.75;5093451;27;96913;-32
2022/12/13 03:41:57;;;;;;;5.50;2.47;;;;;;;-3.48;86.87;101329.31;5093027;27;97413;-31
2022/12/13 03:44:22;;;;;;;3.08;1.67;;;;;;;-3.44;86.81;101346.06;5093219;27;97822;-32
2022/12/13 03:46:47;;;;;;;3.60;3.25;;;;;;;-3.47;87.00;101341.66;5093379;27;96500;-31
2022/12/13 03:49:13;;;;;;;1.83;1.38;;;;;;;-3.46;86.86;101345.19;5093057;27;97728;-31
2022/12/13 03:51:38;;;;;;;5.85;3.28;;;;;;;-3.44;87.08;101346.94;5093010;27;101987;-31
2022/12/13 03:54:03;;;;;;;2.60;1.33;;;;;;;-3.42;87.15;101339.91;5093011;27;99287;-33
2022/12/13 03:56:29;;;;;;;2.72;2.17;;;;;;;-3.42;87.00;101345.19;5093069;27;96505;-31
2022/12/13 03:58:54;;;;;;;2.25;2.08;;;;;;;-3.39;86.84;101340.78;5093732;27;96806;-31
2022/12/13 04:01:20;;;;;;;2.42;1.83;;;;;;;-3.43;87.04;101348.75;5092773;27;99373;-30
2022/12/13 04:03:46;;;;;;;2.15;1.98;;;;;;;-3.38;87.10;101342.56;5093219;27;97256;-33
2022/12/13 04:06:12;;;;;;;2.08;1.23;;;;;;;-3.39;87.16;101346.09;5092452;27;96526;-32
2022/12/13 04:08:38;;;;;;;4.60;3.47;;;;;;;-3.39;87.33;101346.97;5094806;27;97269;-31
2022/12/13 04:13:50;;;;;;;1.90;1.80;;;;;;;-3.43;87.03;101348.75;5096920;27;96921;-31
2022/12/13 04:16:15;;;;;;;4.57;2.13;;;;;;;-3.41;87.13;101348.72;5077852;27;96738;-31
2022/12/13 04:18:40;;;;;;;1.83;1.30;;;;;;;-3.42;87.42;101339.03;5096549;27;96784;-33
2022/12/13 04:21:06;;;;;;;4.32;3.38;;;;;;;-3.44;87.77;101336.38;5096559;27;98489;-31
2022/12/13 04:23:31;;;;;;;5.45;2.50;;;;;;;-3.43;88.07;101329.31;5096397;27;97913;-32
2022/12/13 04:25:58;;;;;;;1.00;0.93;;;;;;;-3.41;87.56;101327.53;5096604;27;96693;-31
2022/12/13 04:28:23;;;;;;;3.20;2.63;;;;;;;-3.40;88.10;101328.44;5077797;27;96804;-33
2022/12/13 04:30:52;;;;;;;2.30;2.10;;;;;;;-3.43;88.01;101327.56;5095106;27;110395;-31
2022/12/13 04:33:19;;;;;;;4.25;2.08;;;;;;;-3.41;87.70;101324.91;5077537;27;101217;-31
2022/12/13 04:35:45;;;;;;;0.80;0.80;;;;;;;-3.40;88.02;101316.09;5096349;27;96500;-31
2022/12/13 04:38:11;;;;;;;2.80;2.00;;;;;;;-3.39;87.76;101316.97;5077567;27;96955;-31
2022/12/13 04:40:36;;;;;;;3.63;2.95;;;;;;;-3.37;87.79;101323.16;5096324;27;98083;-31
2022/12/13 04:43:01;;;;;;;6.25;2.90;;;;;;;-3.42;88.06;101337.25;5096308;27;97794;-33
2022/12/13 04:45:27;;;;;;;2.85;2.00;;;;;;;-3.45;87.60;101326.66;5096132;27;96634;-32
2022/12/13 04:47:52;;;;;;;3.70;3.10;;;;;;;-3.41;87.81;101324.91;5096654;27;96748;-31
2022/12/13 04:50:17;;;;;;;1.77;1.52;;;;;;;-3.39;88.02;101327.56;5095860;27;102691;-31
2022/12/13 04:52:43;;;;;;;4.72;2.97;;;;;;;-3.38;88.10;101321.38;5096128;27;97325;-31
2022/12/13 04:55:09;;;;;;;1.55;1.45;;;;;;;-3.41;87.97;101309.00;5077007;27;97271;-32
2022/12/13 04:57:35;;;;;;;1.88;1.45;;;;;;;-3.44;87.77;101301.06;5077363;27;96940;-32
2022/12/13 05:00:00;;;;;;;0.55;0.55;;;;;;;-3.45;87.89;101300.19;5095671;27;98116;-30
2022/12/13 05:02:26;;;;;;;5.70;2.85;;;;;;;-3.42;87.84;101305.47;5096058;27;97382;-32
2022/12/13 05:04:52;;;;;;;4.85;2.90;;;;;;;-3.45;87.88;101305.47;5077124;27;97409;-31
2022/12/13 05:07:17;;;;;;;0.88;0.63;;;;;;;-3.43;87.83;101313.44;5095967;27;96761;-31
2022/12/13 05:09:42;;;;;;;1.88;1.70;;;;;;;-3.40;87.71;101316.09;5095388;27;99187;-31
2022/12/13 05:12:08;;;;;;;3.67;1.23;;;;;;;-3.44;87.54;101315.19;5095624;27;109535;-31
2022/12/13 05:14:33;;;;;;;2.45;2.25;;;;;;;-3.46;87.40;101318.69;5095686;27;96603;-31
2022/12/13 05:16:59;;;;;;;4.47;2.45;;;;;;;-3.47;87.59;101320.47;5095807;27;96787;-32
2022/12/13 05:19:25;;;;;;;4.55;1.95;;;;;;;-3.47;87.16;101323.13;5075342;27;100720;-31
2022/12/13 05:21:50;;;;;;;2.70;2.45;;;;;;;-3.46;87.40;101316.06;5095376;27;99125;-31
2022/12/13 05:24:16;;;;;;;2.30;1.98;;;;;;;-3.50;87.07;101312.53;5094863;27;100724;-31
2022/12/13 05:26:41;;;;;;;3.70;2.20;;;;;;;-3.53;86.98;101308.97;5095633;27;96744;-30
2022/12/13 05:29:06;;;;;;;1.88;1.30;;;;;;;-3.52;87.14;101308.09;5095094;27;97374;-31
2022/12/13 05:31:31;;;;;;;1.77;1.55;;;;;;;-3.56;87.11;101307.19;5095450;27;97897;-32
2022/12/13 05:33:57;;;;;;;1.92;1.65;;;;;;;-3.52;87.21;101310.75;5095803;27;96604;-31
2022/12/13 05:36:24;;;;;;;1.67;1.58;;;;;;;-3.55;87.24;101311.63;5095774;27;96796;-31
2022/12/13 05:38:50;;;;;;;5.68;2.63;;;;;;;-3.52;87.51;101314.28;5076609;27;100816;-31
2022/12/13 05:41:19;;;;;;;5.40;2.85;;;;;;;-3.53;87.45;101317.78;5076590;27;101029;-31
2022/12/13 05:43:45;;;;;;;4.10;2.88;;;;;;;-3.51;87.32;101317.81;5076061;27;97283;-33
2022/12/13 05:46:12;;;;;;;3.22;2.65;;;;;;;-3.54;87.51;101301.91;5095257;27;96732;-32
2022/12/13 05:48:37;;;;;;;3.05;2.75;;;;;;;-3.52;86.92;101301.03;5076382;27;101260;-32
2022/12/13 05:51:02;;;;;;;2.00;1.80;;;;;;;-3.54;87.13;101310.75;5094703;27;98882;-31
2022/12/13 05:53:28;;;;;;;3.28;2.97;;;;;;;-3.55;87.39;101305.44;5095319;27;96453;-32
2022/12/13 05:55:53;;;;;;;4.82;3.28;;;;;;;-3.56;87.11;101301.03;5095090;27;96906;-31
2022/12/13 05:58:18;;;;;;;7.28;2.78;;;;;;;-3.54;87.40;101304.56;5094547;27;99243;-31
2022/12/13 06:00:44;;;;;;;2.08;1.88;;;;;;;-3.55;87.31;101298.41;5095058;27;105015;-30
2022/12/13 06:03:09;;;;;;;1.20;0.93;;;;;;;-3.53;87.19;101301.03;5094778;27;96645;-32
2022/12/13 06:05:34;;;;;;;1.30;1.20;;;;;;;-3.56;87.54;101303.66;5095066;27;96737;-33
2022/12/13 06:08:00;;;;;;;0.95;0.93;;;;;;;-3.58;87.61;101298.34;5094134;27;99703;-32
2022/12/13 06:10:27;;;;;;;3.47;1.92;;;;;;;-3.53;87.50;101298.38;5094847;27;97748;-31
2022/12/13 06:12:52;;;;;;;2.28;1.48;;;;;;;-3.56;87.38;101288.66;5094374;27;96659;-32
2022/12/13 06:15:17;;;;;;;6.78;4.38;;;;;;;-3.57;87.70;101292.22;5094865;27;96711;-32
2022/12/13 06:17:43;;;;;;;7.38;1.92;;;;;;;-3.59;87.78;101293.97;5094679;27;97352;-31
2022/12/13 06:20:09;;;;;;;3.28;2.08;;;;;;;-3.58;87.23;101298.34;5094488;27;97126;-31
2022/12/13 06:22:34;;;;;;;1.00;1.00;;;;;;;-3.54;87.69;101302.78;5094571;27;96701;-32
2022/12/13 06:25:00;;;;;;;4.03;2.47;;;;;;;-3.58;87.95;101295.72;5094259;27;96928;-30
2022/12/13 06:27:26;;;;;;;1.40;1.30;;;;;;;-3.55;87.62;101297.47;5094109;27;99294;-32
2022/12/13 06:29:51;;;;;;;1.20;1.10;;;;;;;-3.55;87.91;101295.75;5075591;27;100795;-30
2022/12/13 06:32:16;;;;;;;2.55;2.25;;;;;;;-3.54;87.42;101297.50;5093701;27;96636;-33
2022/12/13 06:34:42;;;;;;;4.47;2.75;;;;;;;-3.56;87.40;101298.38;5094355;27;96916;-32
2022/12/13 06:37:11;;;;;;;3.80;3.50;;;;;;;-3.56;87.44;101304.56;5094268;27;97453;-30
2022/12/13 06:39:37;;;;;;;1.48;1.27;;;;;;;-3.57;87.73;101301.91;5075560;27;101031;-31
2022/12/13 06:42:04;;;;;;;7.80;4.18;;;;;;;-3.55;87.58;101306.34;5094255;27;96665;-31
2022/12/13 06:44:30;;;;;;;1.63;1.35;;;;;;;-3.56;87.84;101301.91;5094296;27;96764;-31
2022/12/13 06:46:55;;;;;;;4.43;2.08;;;;;;;-3.58;87.63;101300.13;5093857;27;99213;-31
2022/12/13 06:49:21;;;;;;;1.73;1.52;;;;;;;-3.55;87.44;101301.03;5094109;27;99987;-31
2022/12/13 06:51:46;;;;;;;3.42;2.95;;;;;;;-3.55;87.67;101306.34;5094224;27;96723;-31
2022/12/13 06:54:11;;;;;;;1.08;0.98;;;;;;;-3.55;87.48;101305.44;5094246;27;99466;-31
2022/12/13 06:56:37;;;;;;;2.60;1.98;;;;;;;-3.56;87.58;101307.19;5093477;27;98199;-31
2022/12/13 06:59:02;;;;;;;5.22;3.42;;;;;;;-3.53;87.75;101303.66;5094120;27;97272;-32
2022/12/13 07:01:29;;;;;;;2.85;2.20;;;;;;;-3.54;87.37;101297.50;5094137;27;96692;-31
2022/12/13 07:03:55;;;;;;;8.98;5.63;;;;;;;-3.52;87.28;101300.16;5075502;27;96798;-32
2022/12/13 07:06:22;;;;;;;2.97;2.75;;;;;;;-3.55;87.43;101308.97;5093535;27;99599;-32
2022/12/13 07:08:49;;;;;;;8.10;4.05;;;;;;;-3.55;87.18;101297.47;5075123;27;100724;-33
2022/12/13 07:11:24;;;;;;;5.57;1.65;;;;;;;-3.52;87.27;101310.75;5075006;27;96723;-31
2022/12/13 07:13:50;;;;;;;3.80;2.95;;;;;;;-3.55;87.35;101303.69;5094476;27;96621;-31
2022/12/13 07:16:15;;;;;;;3.58;3.00;;;;;;;-3.57;87.36;101296.63;5075103;27;101578;-31
2022/12/13 07:18:40;;;;;;;3.90;3.28;;;;;;;-3.58;87.33;101298.34;5074820;27;97494;-32
2022/12/13 07:21:08;;;;;;;1.52;1.42;;;;;;;-3.59;87.55;101303.66;5093334;27;96569;-31
2022/12/13 07:23:34;;;;;;;6.38;5.18;;;;;;;-3.57;87.27;101302.78;5073902;27;97242;-31
2022/12/13 07:26:00;;;;;;;2.72;2.45;;;;;;;-3.60;87.12;101301.88;5075030;27;100965;-32
2022/12/13 07:28:25;;;;;;;6.90;4.22;;;;;;;-3.60;87.51;101307.19;5093826;27;97271;-31
2022/12/13 07:30:50;;;;;;;7.72;1.60;;;;;;;-3.59;87.37;101307.19;5093434;27;96652;-31
2022/12/13 07:33:16;;;;;;;1.85;1.45;;;;;;;-3.63;87.47;101306.28;5093719;27;96759;-32
2022/12/13 07:35:42;;;;;;;2.10;1.92;;;;;;;-3.60;87.09;101307.19;5093298;27;99200;-31
2022/12/13 07:38:09;;;;;;;3.83;3.28;;;;;;;-3.60;87.14;101305.41;5093526;27;99743;-30
2022/12/13 07:40:38;;;;;;;4.90;1.15;;;;;;;-3.53;87.57;101316.91;5074881;27;96651;-33
2022/12/13 07:43:04;;;;;;;3.20;2.42;;;;;;;-3.52;87.51;101313.41;5095995;27;96814;-31
2022/12/13 07:45:30;;;;;;;11.80;2.47;;;;;;;-3.53;87.24;101311.63;5099871;27;97977;-31
2022/12/13 07:47:55;;;;;;;1.85;1.52;;;;;;;-3.54;87.42;101312.50;5100235;27;97432;-31
2022/12/13 07:50:21;;;;;;;4.80;2.60;;;;;;;-3.53;87.18;101311.63;5100045;27;96627;-32
2022/12/13 07:52:47;;;;;;;4.70;3.63;;;;;;;-3.54;87.08;101309.88;5081401;27;96817;-31
2022/12/13 07:55:13;;;;;;;4.32;2.65;;;;;;;-3.52;87.41;101300.16;5081380;27;99047;-31
2022/12/13 07:57:38;;;;;;;6.43;4.43;;;;;;;-3.52;87.16;101310.75;5099843;27;99211;-31
2022/12/13 08:00:04;;;;;;;2.33;2.13;;;;;;;-3.53;87.15;101315.13;5100175;27;96523;-31
2022/12/13 08:02:29;;;;;;;3.80;2.72;;;;;;;-3.51;87.11;101310.75;5100213;27;96748;-32
2022/12/13 08:04:54;;;;;;;1.63;1.13;;;;;;;-3.50;87.12;101315.19;5099977;27;98306;-31
2022/12/13 08:07:20;;;;;;;3.30;2.47;;;;;;;-3.46;87.05;101332.81;5099743;27;97544;-30
2022/12/13 08:09:45;;;;;;;1.05;0.85;;;;;;;-3.46;87.35;101326.66;5099652;27;96370;-30
2022/12/13 08:12:10;;;;;;;6.45;2.33;;;;;;;-3.46;86.86;101329.28;5099745;27;96600;-32
2022/12/13 08:14:36;;;;;;;7.55;2.35;;;;;;;-3.46;87.04;101343.41;5099955;27;97261;-31
2022/12/13 08:17:01;;;;;;;2.03;1.83;;;;;;;-3.46;87.29;101340.75;5099693;27;105890;-31
2022/12/13 08:19:26;;;;;;;4.65;2.85;;;;;;;-3.45;87.35;101337.25;5099351;27;96540;-32
2022/12/13 08:21:52;;;;;;;2.25;1.33;;;;;;;-3.47;87.26;101339.00;5100092;27;96782;-32
2022/12/13 08:24:18;;;;;;;3.53;2.08;;;;;;;-3.43;87.14;101327.56;5098771;27;99491;-30
2022/12/13 08:26:43;;;;;;;3.50;2.38;;;;;;;-3.42;87.18;101336.38;5100134;27;97398;-30
2022/12/13 08:29:11;;;;;;;3.42;2.25;;;;;;;-3.39;87.21;101328.44;5099968;27;96481;-32
2022/12/13 08:31:36;;;;;;;2.22;2.00;;;;;;;-3.42;87.41;101331.09;5099683;27;96726;-31
2022/12/13 08:34:03;;;;;;;3.92;3.40;;;;;;;-3.37;87.49;101339.03;5099010;27;99068;-31
2022/12/13 08:36:28;;;;;;;1.63;1.52;;;;;;;-3.36;87.74;101335.50;5099489;27;99505;-31
2022/12/13 08:38:55;;;;;;;4.95;1.40;;;;;;;-3.33;87.34;101354.06;5099613;27;96493;-31
2022/12/13 08:41:20;;;;;;;3.08;2.58;;;;;;;-3.31;87.48;101357.59;5081073;27;96764;-31
2022/12/13 08:43:46;;;;;;;3.30;2.25;;;;;;;-3.28;87.63;101355.84;5099501;27;97981;-31
2022/12/13 08:46:11;;;;;;;2.20;2.00;;;;;;;-3.24;87.03;101362.06;5080688;27;101531;-33
2022/12/13 08:48:37;;;;;;;6.15;3.20;;;;;;;-3.21;87.64;101351.47;5099716;27;96518;-30
2022/12/13 08:51:05;;;;;;;3.22;3.03;;;;;;;-3.19;87.42;101355.00;5099698;27;96651;-31
2022/12/13 08:53:30;;;;;;;2.22;2.03;;;;;;;-3.17;87.57;101347.03;5099382;27;97456;-31
2022/12/13 08:56:14;;;;;;;3.72;2.70;;;;;;;-3.11;87.89;101350.59;5094519;27;99444;-31
2022/12/13 08:58:39;;;;;;;1.35;1.25;;;;;;;-3.08;87.76;101349.72;5077023;27;97162;-31
2022/12/13 09:01:06;;;;;;;6.57;4.88;;;;;;;-3.06;87.68;101354.13;5095831;27;96781;-31
2022/12/13 09:03:31;;;;;;;2.40;1.85;;;;;;;-3.01;87.58;101349.72;5077073;27;101072;-30
2022/12/13 09:05:56;;;;;;;2.10;1.90;;;;;;;-2.99;87.77;101347.09;5095874;27;97334;-30
2022/12/13 09:08:22;;;;;;;2.67;2.15;;;;;;;-3.01;87.62;101339.13;5095603;27;105447;-31
2022/12/13 09:10:58;;;;;;;2.53;2.28;;;;;;;-2.93;87.92;101346.22;5095725;27;97941;-31
2022/12/13 09:13:23;;;;;;;8.43;2.05;;;;;;;-2.94;87.86;101347.09;5095534;27;97962;-31
2022/12/13 09:15:49;;;;;;;4.93;3.15;;;;;;;-2.89;87.75;101348.88;5095371;27;99514;-31
2022/12/13 09:18:14;;;;;;;3.78;2.63;;;;;;;-2.83;87.97;101346.25;5093820;27;97787;-32
2022/12/13 09:20:41;;;;;;;2.15;1.90;;;;;;;-2.80;87.77;101343.59;5095038;27;104578;-31
2022/12/13 09:23:06;;;;;;;1.70;1.52;;;;;;;-2.72;87.80;101348.88;5057910;27;101533;-35
2022/12/13 09:25:32;;;;;;;3.50;2.67;;;;;;;-2.69;87.71;101348.91;5094352;27;97779;-31
2022/12/13 09:27:57;;;;;;;1.38;1.25;;;;;;;-2.65;87.49;101345.34;5095436;27;96778;-31
2022/12/13 09:30:22;;;;;;;4.00;2.92;;;;;;;-2.62;87.76;101352.47;5095630;27;96719;-31
2022/12/13 09:32:49;;;;;;;3.40;3.10;;;;;;;-2.54;87.66;101347.16;5095284;27;101892;-31
2022/12/13 09:35:14;;;;;;;8.57;6.30;;;;;;;-2.48;87.43;101340.09;5093114;27;99169;-33
2022/12/13 09:37:40;;;;;;;4.13;3.72;;;;;;;-2.44;87.66;101347.13;5093000;27;97053;-32
2022/12/13 09:40:06;;;;;;;16.70;5.47;;;;;;;-2.41;87.15;101339.22;5091853;27;97027;-34
2022/12/13 09:42:34;;;;;;;3.78;3.03;;;;;;;-2.30;87.33;101344.50;5090618;27;99691;-31
2022/12/13 09:45:05;;;;;;;5.03;2.38;;;;;;;-2.27;87.13;101339.16;5072136;27;101449;-31
2022/12/13 09:47:34;;;;;;;1.87;1.53;;;;;;;-2.24;87.15;101336.53;5071528;27;98396;-30
2022/12/13 09:50:04;;;;;;;1.67;1.27;;;;;;;-2.20;87.03;101340.06;5073595;27;97041;-30
2022/12/13 09:52:37;;;;;;;2.10;1.90;;;;;;;-2.18;86.75;101340.94;5074899;27;101330;-34
2022/12/13 09:55:15;;;;;;;2.30;1.85;;;;;;;-2.20;86.63;101326.78;5075634;27;100745;-32
2022/12/13 09:57:42;;;;;;;5.13;2.38;;;;;;;-2.09;86.84;101326.78;5076572;27;96640;-31
2022/12/13 10:00:13;;;;;;;1.40;1.30;;;;;;;-2.05;86.83;101332.09;5076428;27;96830;-31
2022/12/13 10:02:46;;;;;;;2.17;1.92;;;;;;;-2.02;86.54;101329.41;5076346;27;100913;-31
2022/12/13 10:05:26;;;;;;;1.92;1.60;;;;;;;-1.96;86.45;101337.34;5076302;27;99382;-32
2022/12/13 10:07:56;;;;;;;2.20;1.63;;;;;;;-1.94;86.29;101335.56;5094704;27;96589;-31
2022/12/13 10:10:22;;;;;;;1.83;1.48;;;;;;;-1.92;86.29;101327.63;5076064;27;96923;-32
2022/12/13 10:12:54;;;;;;;4.63;3.10;;;;;;;-1.90;86.30;101323.19;5058344;27;101308;-31
2022/12/13 10:15:21;;;;;;;3.50;2.25;;;;;;;-1.85;86.35;101323.19;5076131;27;101051;-30
2022/12/13 10:17:48;;;;;;;3.70;2.85;;;;;;;-1.74;86.49;101327.56;5076155;27;96555;-31
2022/12/13 10:20:24;;;;;;;2.28;1.83;;;;;;;-1.60;86.32;101321.31;5075961;27;96805;-31
2022/12/13 10:22:50;;;;;;;4.22;2.15;;;;;;;-1.54;86.19;101306.25;5075468;27;99404;-31
2022/12/13 10:25:15;;;;;;;4.90;2.78;;;;;;;-1.37;86.15;101305.28;5094235;27;97295;-31
2022/12/13 10:27:45;;;;;;;5.93;1.80;;;;;;;-1.26;85.12;101308.78;5093444;27;96464;-31
2022/12/13 10:30:11;;;;;;;5.60;2.50;;;;;;;-1.06;85.31;101303.31;5058795;27;96913;-30
2022/12/13 10:32:57;;;;;;;3.20;2.08;;;;;;;-0.88;84.59;101299.66;5094404;27;96681;-31
2022/12/13 10:35:29;;;;;;;4.07;2.13;;;;;;;-0.83;83.82;101288.97;5094006;27;99130;-31
2022/12/13 10:38:01;;;;;;;2.03;1.80;;;;;;;-0.92;83.88;101289.94;5094135;27;96583;-31
2022/12/13 10:40:33;;;;;;;2.88;2.50;;;;;;;-0.90;84.15;101291.69;5075301;27;98593;-31
2022/12/13 10:43:19;;;;;;;3.15;2.85;;;;;;;-0.93;83.59;101280.19;5075693;27;99545;-31
2022/12/13 10:45:59;;;;;;;2.50;1.67;;;;;;;-1.00;84.04;101265.16;5075541;27;100859;-32
2022/12/13 10:48:48;;;;;;;2.15;1.10;;;;;;;-1.01;84.06;101272.25;5075561;27;96571;-31
2022/12/13 10:51:18;;;;;;;2.10;1.80;;;;;;;-1.00;84.34;101267.81;5074688;27;98838;-31
2022/12/13 10:53:46;;;;;;;10.75;2.55;;;;;;;-0.95;84.40;101271.38;5093194;27;99327;-30
2022/12/13 10:56:11;;;;;;;2.20;2.00;;;;;;;-0.89;84.47;101272.16;5061138;27;100813;-31
2022/12/13 10:58:40;;;;;;;4.32;2.78;;;;;;;-0.89;84.21;101264.19;5073201;27;96748;-32
2022/12/13 11:01:16;;;;;;;6.90;2.97;;;;;;;-0.88;84.17;101265.09;5075315;27;96907;-31
2022/12/13 11:04:03;;;;;;;2.35;2.15;;;;;;;-0.92;84.28;101266.00;5074948;27;100715;-30
2022/12/13 11:06:44;;;;;;;1.25;1.00;;;;;;;-0.83;84.65;101259.72;5109346;27;97635;-33
2022/12/13 11:09:16;;;;;;;5.65;2.38;;;;;;;-0.81;84.21;101258.84;5074697;27;96676;-30
2022/12/13 11:11:43;;;;;;;4.43;2.42;;;;;;;-0.74;84.31;101254.31;5074879;27;96810;-30
2022/12/13 11:14:22;;;;;;;3.25;2.25;;;;;;;-0.63;83.97;101235.63;5092982;27;100732;-30
2022/12/13 11:16:59;;;;;;;2.38;1.75;;;;;;;-0.62;83.52;101240.94;5093592;27;98011;-31
2022/12/13 11:19:36;;;;;;;4.85;4.22;;;;;;;-0.62;83.35;101238.28;5074402;27;96535;-31
2022/12/13 11:22:03;;;;;;;3.83;2.70;;;;;;;-0.55;83.65;101250.63;5059773;27;96722;-30
2022/12/13 11:24:36;;;;;;;5.47;4.40;;;;;;;-0.50;83.79;101232.84;5036276;27;100973;-31
2022/12/13 11:27:28;;;;;;;4.47;3.45;;;;;;;-0.48;83.16;101228.41;5072923;27;99215;-30
2022/12/13 11:30:20;;;;;;;5.05;2.97;;;;;;;-0.39;83.66;101222.06;5056875;27;96698;-31
2022/12/13 11:33:20;;;;;;;2.28;2.05;;;;;;;-0.43;83.32;101207.94;5072904;27;96753;-31
2022/12/13 11:35:51;;;;;;;3.60;1.80;;;;;;;-0.38;83.78;101210.56;5071149;27;101240;-30